Terminal Aerodrome Forecast
Issued by NWS

Home | Current Version | Previous Version | Text Only | Print | Product List | Glossary On
Versions: 1 2 3 4 5 6 7 8 9 10 11 12 13 14 15 16 17 18
455
FTUS46 KSTO 210004 AAA
TAFSAC
TAF AMD
KSAC 210004Z 2100/2124 16013KT P6SM -RA SCT015 OVC040
      TEMPO 2100/2104 17020G30KT 4SM RA OVC015
     FM210400 17032G42KT P6SM -RA SCT015 OVC035
      TEMPO 2104/2108 -TSRA BKN020CB=

USA.gov is the U.S. government's official web portal to all federal, state and local government web resources and services.